Airport Name : Kobe

Other Name : Kobe

ICAO : RJBE

IATA : UKB

FAA :

Latitude : 34.632778

Longitude : 135.223889

Country : Japan

Local Date and Time : 30 May 2024 13:24

 

TAF (Terminal Aerodrome Forecast)

 

METAR (METeorological Aerodrome Report)

RJBE 300400Z 23006KT CAVOK 23/15 Q1013

RJBE 300300Z 20005G15KT 170V240 CAVOK 23/13 Q1013

RJBE 300200Z 13004KT 090V160 9999 FEW035 BKN/// 24/11 Q1014

RJBE 300100Z 13006KT 9999 FEW030 BKN/// 22/14 Q1014